Dothan Regional Airport
KDHN : now visible

Airfield :











YOU CAN JOIN US ON...

 
LOGIN :

Register | Disclaimer

   EN    FR    IT 

 









Legend :    VFR   Marginal VFR   IFR   Intensive IFR   Very Intensive IFR
Visi :
Ceiling :
>= 8 km
>= 3000ft
5 to 8 km
1000 to 3000 ft
1500m to 5 km
500 to 1000 ft
800 to 1500m
200 to 500 ft
< 800m
< 200 ft
Symbols :   Thunderstorms  Fog  Heavy snow  Heavy precipitations  Wind > 20 kt






- Airport Elevation : 401 ft
- IATA code : DHN


KDHN - Dothan Regional

CURRENT METAR :
  • 192053Z 10008KT 10SM SCT047 28/17 A3013 RMK AO2 SLP197 T02830167 56014

EXPIRED METARs :
  • 191953Z VRB05KT 10SM CLR 28/17 A3013 RMK AO2 SLP197 T02830167
  • 191853Z VRB06KT 10SM FEW042 28/17 A3014 RMK AO2 SLP202 T02780167

TAF KDHN
Valid from the 19 at 18:00 until the 20 at 18:00 UTC


191734Z 1918/2018 09008G15KT P6SM SCT050
FM201200 06008KT P6SM BKN025
FM201600 06008KT P6SM SCT050
KZJX FIR / North America



MET'MAP, your aeronautical weather chart ! - Copyright ORBIFLY December 2007 - Disclaimer

ORBIFLY MET'MAP TEAM :

Programming & Development : Alexandra Zaïnal
Concept & original design : Baudouin d'Aumeries
Assistance for programming : Marc-Olivier Méhu
Technical & hardware support : Manuel Goepfert

Contact : metmap@orbifly.com




SOURCES & CREDITS :

   NOAA       Earth
Advisory